National Weather Service United States Department of Commerce

Heavy snow and hazardous travel for portions of the Great Lakes, Northeast, and New England

Heavy snow, bitterly cold temperatures, and treacherous travel will be likely from the Great Lakes to the Northeast, and into New England over the next couple of days. Heavy Lake Effect snow of one to two feet will impact areas downwind of Lake Eerie and Ontario. Widespread snowfall of 6 to 12 inches will also impact much of northern New England. Read More >

                                       ZTL Airspace Summary / KCSG TAF                    For ATC Planning Purposes Only
ZTL Airspace Summary:
High pressure will rapidly build today behind a cold front passage. Expect Low-VFR conditions with patchy MVFR conditions over the high terrain. Surface winds will be northwest at 10-20kts with gusts to 30kts expected. Compression winds are possible at both ATL and CLT airfields. Flight Hazards: LGT-MOD Turbulence at all altitudes and LGT-MOD Rime icing from 020-120.

Updated:12/12/2017 12:42 PM
 

Columbus Terminal Aerodrome Forecast:
 
FTUS52 KCSG 121733
KCSG 121730Z 1218/1318 34016G26KT P6SM FEW040
     FM122300 31012G20KT P6SM SKC
     FM130300 31010KT P6SM SKC
     FM130600 31005KT P6SM SKC
     FM131500 30005KT P6SM FEW250

 

CSG METAR:  
SAUS70 KCSG 122100
METAR KCSG 122051Z 34014KT 10SM CLR 13/M01 A2996 RMK AO2 SLP144
     T01331006 53001

Go to KCSG TAF TDA
Go to KCSG TAF TDA

 
CSG TRACON HAZARDS
CSG TRACON: SFC-12000
AVG CIG BASE WHERE REPORTED BLW 10000FT: NONE REPORTED
LOWEST REPORTED CIG: NONE REPORTED
LOWEST REPORTED FLIGHT CAT: VFR
METARS:
KPIM 122115Z AUTO 31013G16KT 10SM CLR 11/01 A2996 RMK AO2 T01140009 PWINO
KEUF 122058Z AUTO 31008G16KT 10SM CLR 14/01 A2995 RMK AO2 SLP141 T01440006 55002
KAUO 122056Z AUTO 31012G19KT 10SM CLR 11/00 A2998 RMK AO2 SLP178 T01110000 53000
KCSG 122051Z 34014KT 10SM CLR 13/M01 A2996 RMK AO2 SLP144 T01331006 53001
KLGC 122115Z AUTO 30015G19KT 10SM CLR 12/00 A2996 RMK AO2 T01150000
KLSF 122056Z AUTO 27013KT 10SM CLR 14/00 A2995 RMK AO2 PK WND 29026/1958 SLP148 T01350002 53001

CSG TRACON HAZARD

Forecast Surface Map Loop / Collaborative Convective Forecast Product / Vertical Wind Profile
Weather Map

 

AIRMETs & SIGMETS/ Southeast Radar loop / Satellite Image (click on image to enlarge)
Weather Map Southeast Radar Loop

satellite

2